sensor_id;sensor_type;location;lat;lon;timestamp;P1;durP1;ratioP1;P2;durP2;ratioP2
1685;SDS011;840;47.980;7.830;2022-10-31T00:01:46;7.60;;;2.77;;
1685;SDS011;840;47.980;7.830;2022-10-31T00:04:13;3.77;;;2.30;;
1685;SDS011;840;47.980;7.830;2022-10-31T00:06:40;2.30;;;2.10;;
1685;SDS011;840;47.980;7.830;2022-10-31T00:09:08;9.83;;;1.93;;
1685;SDS011;840;47.980;7.830;2022-10-31T00:11:37;2.10;;;1.70;;
1685;SDS011;840;47.980;7.830;2022-10-31T00:14:04;4.40;;;1.70;;
1685;SDS011;840;47.980;7.830;2022-10-31T00:16:31;2.40;;;2.00;;
1685;SDS011;840;47.980;7.830;2022-10-31T00:18:59;4.57;;;2.20;;
1685;SDS011;840;47.980;7.830;2022-10-31T00:21:27;5.90;;;2.27;;
1685;SDS011;840;47.980;7.830;2022-10-31T00:23:55;4.60;;;2.13;;
1685;SDS011;840;47.980;7.830;2022-10-31T00:26:22;3.77;;;1.93;;
1685;SDS011;840;47.980;7.830;2022-10-31T00:28:51;3.73;;;2.00;;
1685;SDS011;840;47.980;7.830;2022-10-31T00:31:18;4.33;;;2.33;;
1685;SDS011;840;47.980;7.830;2022-10-31T00:33:45;2.93;;;2.73;;
1685;SDS011;840;47.980;7.830;2022-10-31T00:36:12;3.23;;;2.10;;
1685;SDS011;840;47.980;7.830;2022-10-31T00:38:41;3.20;;;2.47;;
1685;SDS011;840;47.980;7.830;2022-10-31T00:41:08;4.17;;;2.13;;
1685;SDS011;840;47.980;7.830;2022-10-31T00:43:35;2.40;;;2.10;;
1685;SDS011;840;47.980;7.830;2022-10-31T00:46:03;3.17;;;2.87;;
1685;SDS011;840;47.980;7.830;2022-10-31T00:48:30;10.10;;;2.80;;
1685;SDS011;840;47.980;7.830;2022-10-31T00:50:57;5.13;;;2.60;;
1685;SDS011;840;47.980;7.830;2022-10-31T00:53:24;10.43;;;2.23;;
1685;SDS011;840;47.980;7.830;2022-10-31T00:55:51;5.80;;;2.37;;
1685;SDS011;840;47.980;7.830;2022-10-31T00:58:19;4.00;;;2.90;;
1685;SDS011;840;47.980;7.830;2022-10-31T01:00:46;3.27;;;2.33;;
1685;SDS011;840;47.980;7.830;2022-10-31T01:03:21;2.20;;;2.00;;
1685;SDS011;840;47.980;7.830;2022-10-31T01:05:55;3.80;;;2.27;;
1685;SDS011;840;47.980;7.830;2022-10-31T01:08:23;3.40;;;1.90;;
1685;SDS011;840;47.980;7.830;2022-10-31T01:11:04;2.50;;;2.30;;
1685;SDS011;840;47.980;7.830;2022-10-31T01:13:33;6.03;;;2.67;;
1685;SDS011;840;47.980;7.830;2022-10-31T01:16:00;4.20;;;2.20;;
1685;SDS011;840;47.980;7.830;2022-10-31T01:18:29;3.50;;;3.20;;
1685;SDS011;840;47.980;7.830;2022-10-31T01:20:57;2.33;;;2.07;;
1685;SDS011;840;47.980;7.830;2022-10-31T01:23:27;2.83;;;2.30;;
1685;SDS011;840;47.980;7.830;2022-10-31T01:26:05;4.30;;;2.10;;
1685;SDS011;840;47.980;7.830;2022-10-31T01:28:34;2.93;;;2.10;;
1685;SDS011;840;47.980;7.830;2022-10-31T01:31:03;5.57;;;1.90;;
1685;SDS011;840;47.980;7.830;2022-10-31T01:33:34;4.40;;;2.33;;
1685;SDS011;840;47.980;7.830;2022-10-31T01:36:01;2.23;;;2.00;;
1685;SDS011;840;47.980;7.830;2022-10-31T01:38:37;3.27;;;2.20;;
1685;SDS011;840;47.980;7.830;2022-10-31T01:41:04;3.37;;;2.97;;
1685;SDS011;840;47.980;7.830;2022-10-31T01:43:41;5.70;;;2.37;;
1685;SDS011;840;47.980;7.830;2022-10-31T01:46:13;4.77;;;2.83;;
1685;SDS011;840;47.980;7.830;2022-10-31T01:48:43;4.10;;;2.10;;
1685;SDS011;840;47.980;7.830;2022-10-31T01:51:11;3.10;;;2.20;;
1685;SDS011;840;47.980;7.830;2022-10-31T01:53:40;4.80;;;2.70;;
1685;SDS011;840;47.980;7.830;2022-10-31T01:56:08;4.83;;;2.30;;
1685;SDS011;840;47.980;7.830;2022-10-31T01:58:35;2.90;;;2.60;;
1685;SDS011;840;47.980;7.830;2022-10-31T02:01:02;3.13;;;2.53;;
1685;SDS011;840;47.980;7.830;2022-10-31T02:03:30;4.90;;;2.07;;
1685;SDS011;840;47.980;7.830;2022-10-31T02:05:59;2.90;;;2.10;;
1685;SDS011;840;47.980;7.830;2022-10-31T02:08:26;4.40;;;3.00;;
1685;SDS011;840;47.980;7.830;2022-10-31T02:10:55;2.37;;;2.17;;
1685;SDS011;840;47.980;7.830;2022-10-31T02:13:24;5.23;;;1.83;;
1685;SDS011;840;47.980;7.830;2022-10-31T02:15:52;4.83;;;2.10;;
1685;SDS011;840;47.980;7.830;2022-10-31T02:18:21;4.00;;;2.00;;
1685;SDS011;840;47.980;7.830;2022-10-31T02:20:52;3.23;;;2.83;;
1685;SDS011;840;47.980;7.830;2022-10-31T02:26:36;2.23;;;2.13;;
1685;SDS011;840;47.980;7.830;2022-10-31T02:32:26;6.83;;;2.63;;
1685;SDS011;840;47.980;7.830;2022-10-31T02:35:02;4.17;;;2.30;;
1685;SDS011;840;47.980;7.830;2022-10-31T02:37:37;4.97;;;2.33;;
1685;SDS011;840;47.980;7.830;2022-10-31T02:40:14;3.57;;;1.93;;
1685;SDS011;840;47.980;7.830;2022-10-31T02:42:47;4.83;;;2.93;;
1685;SDS011;840;47.980;7.830;2022-10-31T02:45:21;6.10;;;2.10;;
1685;SDS011;840;47.980;7.830;2022-10-31T02:47:56;6.47;;;2.70;;
1685;SDS011;840;47.980;7.830;2022-10-31T02:50:28;5.83;;;2.30;;
1685;SDS011;840;47.980;7.830;2022-10-31T02:52:58;3.40;;;2.70;;
1685;SDS011;840;47.980;7.830;2022-10-31T02:55:44;3.47;;;2.90;;
1685;SDS011;840;47.980;7.830;2022-10-31T02:58:21;2.67;;;1.97;;
1685;SDS011;840;47.980;7.830;2022-10-31T03:00:56;3.37;;;2.30;;
1685;SDS011;840;47.980;7.830;2022-10-31T03:03:39;3.40;;;2.07;;
1685;SDS011;840;47.980;7.830;2022-10-31T03:06:14;2.60;;;2.30;;
1685;SDS011;840;47.980;7.830;2022-10-31T03:08:48;5.70;;;2.23;;
1685;SDS011;840;47.980;7.830;2022-10-31T03:11:22;3.70;;;1.97;;
1685;SDS011;840;47.980;7.830;2022-10-31T03:13:56;4.20;;;3.20;;
1685;SDS011;840;47.980;7.830;2022-10-31T03:16:29;3.90;;;2.30;;
1685;SDS011;840;47.980;7.830;2022-10-31T03:19:05;2.53;;;2.13;;
1685;SDS011;840;47.980;7.830;2022-10-31T03:21:35;5.53;;;2.67;;
1685;SDS011;840;47.980;7.830;2022-10-31T03:24:08;6.03;;;2.67;;
1685;SDS011;840;47.980;7.830;2022-10-31T03:26:37;3.30;;;2.47;;
1685;SDS011;840;47.980;7.830;2022-10-31T03:29:07;3.57;;;2.20;;
1685;SDS011;840;47.980;7.830;2022-10-31T03:31:38;3.80;;;2.20;;
1685;SDS011;840;47.980;7.830;2022-10-31T03:34:11;3.77;;;2.53;;
1685;SDS011;840;47.980;7.830;2022-10-31T03:36:40;3.83;;;2.33;;
1685;SDS011;840;47.980;7.830;2022-10-31T03:39:11;2.90;;;1.50;;
1685;SDS011;840;47.980;7.830;2022-10-31T03:41:40;2.40;;;1.90;;
1685;SDS011;840;47.980;7.830;2022-10-31T03:44:10;6.00;;;2.03;;
1685;SDS011;840;47.980;7.830;2022-10-31T03:46:40;5.50;;;2.30;;
1685;SDS011;840;47.980;7.830;2022-10-31T03:49:08;2.40;;;2.10;;
1685;SDS011;840;47.980;7.830;2022-10-31T03:51:38;3.80;;;2.70;;
1685;SDS011;840;47.980;7.830;2022-10-31T03:54:12;2.83;;;2.27;;
1685;SDS011;840;47.980;7.830;2022-10-31T03:56:48;3.50;;;2.90;;
1685;SDS011;840;47.980;7.830;2022-10-31T03:59:20;2.80;;;1.90;;
1685;SDS011;840;47.980;7.830;2022-10-31T04:01:52;3.73;;;2.30;;
1685;SDS011;840;47.980;7.830;2022-10-31T04:04:22;3.10;;;2.20;;
1685;SDS011;840;47.980;7.830;2022-10-31T04:06:52;2.73;;;2.53;;
1685;SDS011;840;47.980;7.830;2022-10-31T04:09:22;1.80;;;1.70;;
1685;SDS011;840;47.980;7.830;2022-10-31T04:11:53;2.13;;;1.93;;
1685;SDS011;840;47.980;7.830;2022-10-31T04:14:23;4.27;;;2.73;;
1685;SDS011;840;47.980;7.830;2022-10-31T04:16:53;5.17;;;2.60;;
1685;SDS011;840;47.980;7.830;2022-10-31T04:19:20;4.40;;;2.23;;
1685;SDS011;840;47.980;7.830;2022-10-31T04:21:47;5.50;;;2.13;;
1685;SDS011;840;47.980;7.830;2022-10-31T04:24:15;9.83;;;2.77;;
1685;SDS011;840;47.980;7.830;2022-10-31T04:26:42;7.40;;;2.30;;
1685;SDS011;840;47.980;7.830;2022-10-31T04:29:09;5.87;;;2.17;;
1685;SDS011;840;47.980;7.830;2022-10-31T04:31:36;2.50;;;2.30;;
1685;SDS011;840;47.980;7.830;2022-10-31T04:34:02;3.97;;;1.83;;
1685;SDS011;840;47.980;7.830;2022-10-31T04:36:29;4.70;;;2.20;;
1685;SDS011;840;47.980;7.830;2022-10-31T04:38:56;5.90;;;2.70;;
1685;SDS011;840;47.980;7.830;2022-10-31T04:41:24;4.03;;;3.23;;
1685;SDS011;840;47.980;7.830;2022-10-31T04:43:51;4.00;;;2.40;;
1685;SDS011;840;47.980;7.830;2022-10-31T04:46:19;6.33;;;3.33;;
1685;SDS011;840;47.980;7.830;2022-10-31T04:48:46;3.00;;;2.80;;
1685;SDS011;840;47.980;7.830;2022-10-31T04:51:13;9.80;;;3.27;;
1685;SDS011;840;47.980;7.830;2022-10-31T04:53:40;4.00;;;2.67;;
1685;SDS011;840;47.980;7.830;2022-10-31T04:56:07;5.60;;;3.10;;
1685;SDS011;840;47.980;7.830;2022-10-31T04:58:35;4.63;;;3.47;;
1685;SDS011;840;47.980;7.830;2022-10-31T05:01:02;4.10;;;2.93;;
1685;SDS011;840;47.980;7.830;2022-10-31T05:03:29;3.77;;;2.60;;
1685;SDS011;840;47.980;7.830;2022-10-31T05:05:56;4.03;;;2.73;;
1685;SDS011;840;47.980;7.830;2022-10-31T05:08:23;5.00;;;3.70;;
1685;SDS011;840;47.980;7.830;2022-10-31T05:10:51;3.13;;;2.50;;
1685;SDS011;840;47.980;7.830;2022-10-31T05:13:18;5.40;;;3.40;;
1685;SDS011;840;47.980;7.830;2022-10-31T05:15:46;5.53;;;3.83;;
1685;SDS011;840;47.980;7.830;2022-10-31T05:18:13;2.83;;;2.63;;
1685;SDS011;840;47.980;7.830;2022-10-31T05:20:40;6.53;;;3.03;;
1685;SDS011;840;47.980;7.830;2022-10-31T05:23:07;3.40;;;2.90;;
1685;SDS011;840;47.980;7.830;2022-10-31T05:25:34;5.60;;;4.83;;
1685;SDS011;840;47.980;7.830;2022-10-31T05:28:01;3.50;;;3.13;;
1685;SDS011;840;47.980;7.830;2022-10-31T05:30:29;5.97;;;4.03;;
1685;SDS011;840;47.980;7.830;2022-10-31T05:32:59;10.30;;;3.73;;
1685;SDS011;840;47.980;7.830;2022-10-31T05:35:27;3.67;;;3.33;;
1685;SDS011;840;47.980;7.830;2022-10-31T05:37:55;5.50;;;3.60;;
1685;SDS011;840;47.980;7.830;2022-10-31T05:40:23;10.77;;;3.87;;
1685;SDS011;840;47.980;7.830;2022-10-31T05:42:55;6.33;;;3.87;;
1685;SDS011;840;47.980;7.830;2022-10-31T05:45:23;5.27;;;3.30;;
1685;SDS011;840;47.980;7.830;2022-10-31T05:47:51;6.30;;;3.93;;
1685;SDS011;840;47.980;7.830;2022-10-31T05:50:20;4.53;;;4.13;;
1685;SDS011;840;47.980;7.830;2022-10-31T05:52:53;5.20;;;3.73;;
1685;SDS011;840;47.980;7.830;2022-10-31T05:55:21;6.50;;;3.57;;
1685;SDS011;840;47.980;7.830;2022-10-31T05:57:50;4.27;;;3.87;;
1685;SDS011;840;47.980;7.830;2022-10-31T06:00:17;10.57;;;4.53;;
1685;SDS011;840;47.980;7.830;2022-10-31T06:02:45;4.60;;;4.00;;
1685;SDS011;840;47.980;7.830;2022-10-31T06:05:12;8.73;;;4.70;;
1685;SDS011;840;47.980;7.830;2022-10-31T06:07:41;6.53;;;4.30;;
1685;SDS011;840;47.980;7.830;2022-10-31T06:10:07;7.67;;;4.10;;
1685;SDS011;840;47.980;7.830;2022-10-31T06:12:35;8.20;;;4.60;;
1685;SDS011;840;47.980;7.830;2022-10-31T06:15:06;6.80;;;4.30;;
1685;SDS011;840;47.980;7.830;2022-10-31T06:17:34;7.13;;;5.00;;
1685;SDS011;840;47.980;7.830;2022-10-31T06:20:02;6.00;;;3.97;;
1685;SDS011;840;47.980;7.830;2022-10-31T06:22:29;11.57;;;4.80;;
1685;SDS011;840;47.980;7.830;2022-10-31T06:24:58;3.97;;;3.60;;
1685;SDS011;840;47.980;7.830;2022-10-31T06:27:25;14.70;;;4.20;;
1685;SDS011;840;47.980;7.830;2022-10-31T06:29:52;6.23;;;5.00;;
1685;SDS011;840;47.980;7.830;2022-10-31T06:32:19;9.20;;;3.73;;
1685;SDS011;840;47.980;7.830;2022-10-31T06:34:47;4.20;;;3.80;;
1685;SDS011;840;47.980;7.830;2022-10-31T06:37:14;7.50;;;4.57;;
1685;SDS011;840;47.980;7.830;2022-10-31T06:39:42;12.63;;;4.80;;
1685;SDS011;840;47.980;7.830;2022-10-31T06:42:10;5.73;;;4.70;;
1685;SDS011;840;47.980;7.830;2022-10-31T06:44:37;5.90;;;4.20;;
1685;SDS011;840;47.980;7.830;2022-10-31T06:47:05;4.83;;;4.40;;
1685;SDS011;840;47.980;7.830;2022-10-31T06:49:32;11.47;;;5.47;;
1685;SDS011;840;47.980;7.830;2022-10-31T06:51:59;6.43;;;4.43;;
1685;SDS011;840;47.980;7.830;2022-10-31T06:54:26;5.17;;;3.90;;
1685;SDS011;840;47.980;7.830;2022-10-31T06:56:53;7.20;;;4.80;;
1685;SDS011;840;47.980;7.830;2022-10-31T06:59:22;10.60;;;5.03;;
1685;SDS011;840;47.980;7.830;2022-10-31T07:01:50;4.23;;;3.73;;
1685;SDS011;840;47.980;7.830;2022-10-31T07:04:17;5.90;;;4.57;;
1685;SDS011;840;47.980;7.830;2022-10-31T07:06:44;7.63;;;3.80;;
1685;SDS011;840;47.980;7.830;2022-10-31T07:09:11;5.30;;;4.37;;
1685;SDS011;840;47.980;7.830;2022-10-31T07:11:38;9.60;;;4.10;;
1685;SDS011;840;47.980;7.830;2022-10-31T07:14:05;6.13;;;4.10;;
1685;SDS011;840;47.980;7.830;2022-10-31T07:16:34;6.63;;;4.70;;
1685;SDS011;840;47.980;7.830;2022-10-31T07:19:01;4.63;;;4.23;;
1685;SDS011;840;47.980;7.830;2022-10-31T07:21:28;5.23;;;3.90;;
1685;SDS011;840;47.980;7.830;2022-10-31T07:23:54;5.67;;;3.97;;
1685;SDS011;840;47.980;7.830;2022-10-31T07:26:21;4.40;;;4.00;;
1685;SDS011;840;47.980;7.830;2022-10-31T07:28:48;7.03;;;5.57;;
1685;SDS011;840;47.980;7.830;2022-10-31T07:31:15;7.97;;;3.97;;
1685;SDS011;840;47.980;7.830;2022-10-31T07:33:43;6.23;;;4.13;;
1685;SDS011;840;47.980;7.830;2022-10-31T07:36:10;6.70;;;4.40;;
1685;SDS011;840;47.980;7.830;2022-10-31T07:38:37;5.53;;;4.23;;
1685;SDS011;840;47.980;7.830;2022-10-31T07:41:04;6.00;;;4.20;;
1685;SDS011;840;47.980;7.830;2022-10-31T07:43:32;7.30;;;4.67;;
1685;SDS011;840;47.980;7.830;2022-10-31T07:45:59;11.73;;;6.17;;
1685;SDS011;840;47.980;7.830;2022-10-31T07:48:26;8.30;;;4.23;;
1685;SDS011;840;47.980;7.830;2022-10-31T07:50:57;8.13;;;4.33;;
1685;SDS011;840;47.980;7.830;2022-10-31T07:53:24;5.83;;;4.70;;
1685;SDS011;840;47.980;7.830;2022-10-31T07:55:51;5.10;;;4.60;;
1685;SDS011;840;47.980;7.830;2022-10-31T07:58:18;4.23;;;3.80;;
1685;SDS011;840;47.980;7.830;2022-10-31T08:00:45;5.13;;;3.50;;
1685;SDS011;840;47.980;7.830;2022-10-31T08:03:14;5.60;;;4.00;;
1685;SDS011;840;47.980;7.830;2022-10-31T08:05:42;7.10;;;3.50;;
1685;SDS011;840;47.980;7.830;2022-10-31T08:08:12;7.50;;;3.93;;
1685;SDS011;840;47.980;7.830;2022-10-31T08:10:40;4.90;;;4.20;;
1685;SDS011;840;47.980;7.830;2022-10-31T08:13:07;4.83;;;3.77;;
1685;SDS011;840;47.980;7.830;2022-10-31T08:15:35;8.10;;;5.13;;
1685;SDS011;840;47.980;7.830;2022-10-31T08:18:04;3.90;;;3.60;;
1685;SDS011;840;47.980;7.830;2022-10-31T08:20:31;4.80;;;4.07;;
1685;SDS011;840;47.980;7.830;2022-10-31T08:22:59;4.83;;;4.43;;
1685;SDS011;840;47.980;7.830;2022-10-31T08:25:29;5.03;;;4.33;;
1685;SDS011;840;47.980;7.830;2022-10-31T08:27:57;4.93;;;4.43;;
1685;SDS011;840;47.980;7.830;2022-10-31T08:30:25;7.73;;;5.00;;
1685;SDS011;840;47.980;7.830;2022-10-31T08:32:58;6.87;;;4.87;;
1685;SDS011;840;47.980;7.830;2022-10-31T08:35:26;5.60;;;4.30;;
1685;SDS011;840;47.980;7.830;2022-10-31T08:37:54;13.53;;;4.40;;
1685;SDS011;840;47.980;7.830;2022-10-31T08:40:21;6.07;;;4.70;;
1685;SDS011;840;47.980;7.830;2022-10-31T08:42:56;6.87;;;4.60;;
1685;SDS011;840;47.980;7.830;2022-10-31T08:45:24;12.23;;;4.10;;
1685;SDS011;840;47.980;7.830;2022-10-31T08:47:52;5.53;;;4.27;;
1685;SDS011;840;47.980;7.830;2022-10-31T08:50:23;11.07;;;4.20;;
1685;SDS011;840;47.980;7.830;2022-10-31T08:52:50;8.80;;;4.93;;
1685;SDS011;840;47.980;7.830;2022-10-31T08:55:17;6.40;;;5.17;;
1685;SDS011;840;47.980;7.830;2022-10-31T08:57:43;5.90;;;3.97;;
1685;SDS011;840;47.980;7.830;2022-10-31T09:00:12;5.30;;;4.07;;
1685;SDS011;840;47.980;7.830;2022-10-31T09:02:39;7.97;;;3.80;;
1685;SDS011;840;47.980;7.830;2022-10-31T09:05:06;11.13;;;5.07;;
1685;SDS011;840;47.980;7.830;2022-10-31T09:07:34;6.10;;;4.07;;
1685;SDS011;840;47.980;7.830;2022-10-31T09:10:01;5.33;;;3.20;;
1685;SDS011;840;47.980;7.830;2022-10-31T09:12:28;7.93;;;3.23;;
1685;SDS011;840;47.980;7.830;2022-10-31T09:14:55;9.83;;;4.10;;
1685;SDS011;840;47.980;7.830;2022-10-31T09:17:23;7.03;;;4.30;;
1685;SDS011;840;47.980;7.830;2022-10-31T09:19:51;4.57;;;3.60;;
1685;SDS011;840;47.980;7.830;2022-10-31T09:22:18;19.10;;;5.03;;
1685;SDS011;840;47.980;7.830;2022-10-31T09:24:45;10.30;;;3.70;;
1685;SDS011;840;47.980;7.830;2022-10-31T09:27:12;5.83;;;3.77;;
1685;SDS011;840;47.980;7.830;2022-10-31T09:29:39;7.33;;;3.87;;
1685;SDS011;840;47.980;7.830;2022-10-31T09:32:06;9.93;;;3.77;;
1685;SDS011;840;47.980;7.830;2022-10-31T09:34:34;5.70;;;3.60;;
1685;SDS011;840;47.980;7.830;2022-10-31T09:37:01;19.13;;;5.50;;
1685;SDS011;840;47.980;7.830;2022-10-31T09:39:28;12.17;;;4.77;;
1685;SDS011;840;47.980;7.830;2022-10-31T09:42:01;12.40;;;4.60;;
1685;SDS011;840;47.980;7.830;2022-10-31T09:44:44;4.83;;;3.70;;
1685;SDS011;840;47.980;7.830;2022-10-31T09:47:17;6.23;;;3.87;;
1685;SDS011;840;47.980;7.830;2022-10-31T09:49:57;5.53;;;5.03;;
1685;SDS011;840;47.980;7.830;2022-10-31T09:52:32;7.53;;;4.40;;
1685;SDS011;840;47.980;7.830;2022-10-31T09:55:02;15.50;;;6.50;;
1685;SDS011;840;47.980;7.830;2022-10-31T09:57:33;8.00;;;5.33;;
1685;SDS011;840;47.980;7.830;2022-10-31T10:00:03;6.23;;;4.90;;
1685;SDS011;840;47.980;7.830;2022-10-31T10:02:32;8.20;;;5.73;;
1685;SDS011;840;47.980;7.830;2022-10-31T10:05:09;11.47;;;6.70;;
1685;SDS011;840;47.980;7.830;2022-10-31T10:07:40;8.23;;;5.60;;
1685;SDS011;840;47.980;7.830;2022-10-31T10:10:14;9.33;;;4.90;;
1685;SDS011;840;47.980;7.830;2022-10-31T10:12:49;7.50;;;5.73;;
1685;SDS011;840;47.980;7.830;2022-10-31T10:15:39;8.23;;;5.60;;
1685;SDS011;840;47.980;7.830;2022-10-31T10:18:19;4.80;;;4.33;;
1685;SDS011;840;47.980;7.830;2022-10-31T10:20:59;4.40;;;4.00;;
1685;SDS011;840;47.980;7.830;2022-10-31T10:23:41;9.70;;;6.30;;
1685;SDS011;840;47.980;7.830;2022-10-31T10:26:18;8.63;;;5.37;;
1685;SDS011;840;47.980;7.830;2022-10-31T10:28:47;8.33;;;5.47;;
1685;SDS011;840;47.980;7.830;2022-10-31T10:31:21;7.70;;;4.77;;
1685;SDS011;840;47.980;7.830;2022-10-31T10:33:55;7.17;;;4.87;;
1685;SDS011;840;47.980;7.830;2022-10-31T10:36:30;8.63;;;5.37;;
1685;SDS011;840;47.980;7.830;2022-10-31T10:39:02;5.93;;;4.43;;
1685;SDS011;840;47.980;7.830;2022-10-31T10:41:31;6.70;;;5.17;;
1685;SDS011;840;47.980;7.830;2022-10-31T10:43:59;8.65;;;5.57;;
1685;SDS011;840;47.980;7.830;2022-10-31T10:46:26;5.23;;;4.73;;
1685;SDS011;840;47.980;7.830;2022-10-31T10:49:18;11.87;;;6.73;;
1685;SDS011;840;47.980;7.830;2022-10-31T10:51:51;6.97;;;5.93;;
1685;SDS011;840;47.980;7.830;2022-10-31T10:54:36;11.43;;;6.73;;
1685;SDS011;840;47.980;7.830;2022-10-31T10:57:14;11.30;;;6.30;;
1685;SDS011;840;47.980;7.830;2022-10-31T10:59:48;10.67;;;6.47;;
1685;SDS011;840;47.980;7.830;2022-10-31T11:02:17;11.00;;;6.37;;
1685;SDS011;840;47.980;7.830;2022-10-31T11:04:47;8.30;;;6.90;;
1685;SDS011;840;47.980;7.830;2022-10-31T11:07:18;10.10;;;6.57;;
1685;SDS011;840;47.980;7.830;2022-10-31T11:09:45;9.87;;;6.70;;
1685;SDS011;840;47.980;7.830;2022-10-31T11:12:16;13.07;;;7.40;;
1685;SDS011;840;47.980;7.830;2022-10-31T11:14:46;13.60;;;7.00;;
1685;SDS011;840;47.980;7.830;2022-10-31T11:17:20;8.07;;;5.63;;
1685;SDS011;840;47.980;7.830;2022-10-31T11:20:03;7.80;;;7.10;;
1685;SDS011;840;47.980;7.830;2022-10-31T11:22:34;9.83;;;6.90;;
1685;SDS011;840;47.980;7.830;2022-10-31T11:25:11;6.90;;;6.20;;
1685;SDS011;840;47.980;7.830;2022-10-31T11:27:46;11.67;;;6.43;;
1685;SDS011;840;47.980;7.830;2022-10-31T11:30:24;8.00;;;6.53;;
1685;SDS011;840;47.980;7.830;2022-10-31T11:32:50;6.43;;;5.77;;
1685;SDS011;840;47.980;7.830;2022-10-31T11:35:19;9.07;;;5.80;;
1685;SDS011;840;47.980;7.830;2022-10-31T11:37:50;7.03;;;4.87;;
1685;SDS011;840;47.980;7.830;2022-10-31T11:40:20;8.50;;;5.07;;
1685;SDS011;840;47.980;7.830;2022-10-31T11:42:48;7.80;;;7.00;;
1685;SDS011;840;47.980;7.830;2022-10-31T11:45:19;8.63;;;5.07;;
1685;SDS011;840;47.980;7.830;2022-10-31T11:47:56;8.23;;;5.17;;
1685;SDS011;840;47.980;7.830;2022-10-31T11:50:27;9.43;;;5.50;;
1685;SDS011;840;47.980;7.830;2022-10-31T11:52:59;6.97;;;4.87;;
1685;SDS011;840;47.980;7.830;2022-10-31T11:55:31;6.47;;;5.50;;
1685;SDS011;840;47.980;7.830;2022-10-31T11:57:59;7.07;;;5.13;;
1685;SDS011;840;47.980;7.830;2022-10-31T12:00:27;10.40;;;5.07;;
1685;SDS011;840;47.980;7.830;2022-10-31T12:03:04;6.73;;;4.87;;
1685;SDS011;840;47.980;7.830;2022-10-31T12:05:39;6.43;;;5.37;;
1685;SDS011;840;47.980;7.830;2022-10-31T12:08:08;6.13;;;4.80;;
1685;SDS011;840;47.980;7.830;2022-10-31T12:10:38;10.50;;;5.43;;
1685;SDS011;840;47.980;7.830;2022-10-31T12:13:16;5.70;;;4.90;;
1685;SDS011;840;47.980;7.830;2022-10-31T12:15:57;7.17;;;4.60;;
1685;SDS011;840;47.980;7.830;2022-10-31T12:18:44;7.27;;;4.80;;
1685;SDS011;840;47.980;7.830;2022-10-31T12:21:26;4.90;;;4.40;;
1685;SDS011;840;47.980;7.830;2022-10-31T12:24:07;6.30;;;4.40;;
1685;SDS011;840;47.980;7.830;2022-10-31T12:26:45;6.07;;;4.30;;
1685;SDS011;840;47.980;7.830;2022-10-31T12:29:27;6.60;;;5.90;;
1685;SDS011;840;47.980;7.830;2022-10-31T12:32:11;7.03;;;4.90;;
1685;SDS011;840;47.980;7.830;2022-10-31T12:34:53;8.40;;;4.50;;
1685;SDS011;840;47.980;7.830;2022-10-31T12:37:40;6.33;;;5.60;;
1685;SDS011;840;47.980;7.830;2022-10-31T12:40:22;6.77;;;5.17;;
1685;SDS011;840;47.980;7.830;2022-10-31T12:43:00;9.33;;;4.30;;
1685;SDS011;840;47.980;7.830;2022-10-31T12:45:44;6.93;;;4.90;;
1685;SDS011;840;47.980;7.830;2022-10-31T12:51:15;8.20;;;4.73;;
1685;SDS011;840;47.980;7.830;2022-10-31T12:53:53;11.10;;;5.13;;
1685;SDS011;840;47.980;7.830;2022-10-31T12:56:35;6.67;;;5.10;;
1685;SDS011;840;47.980;7.830;2022-10-31T12:59:10;10.37;;;4.00;;
1685;SDS011;840;47.980;7.830;2022-10-31T13:01:44;6.60;;;5.83;;
1685;SDS011;840;47.980;7.830;2022-10-31T13:04:18;11.20;;;5.33;;
1685;SDS011;840;47.980;7.830;2022-10-31T13:07:03;9.20;;;4.30;;
1685;SDS011;840;47.980;7.830;2022-10-31T13:09:35;6.83;;;4.77;;
1685;SDS011;840;47.980;7.830;2022-10-31T13:12:08;8.63;;;4.60;;
1685;SDS011;840;47.980;7.830;2022-10-31T13:14:38;7.30;;;4.30;;
1685;SDS011;840;47.980;7.830;2022-10-31T13:17:08;8.67;;;4.93;;
1685;SDS011;840;47.980;7.830;2022-10-31T13:19:41;10.03;;;4.60;;
1685;SDS011;840;47.980;7.830;2022-10-31T13:22:12;6.73;;;4.63;;
1685;SDS011;840;47.980;7.830;2022-10-31T13:24:43;7.40;;;4.63;;
1685;SDS011;840;47.980;7.830;2022-10-31T13:27:17;7.30;;;5.20;;
1685;SDS011;840;47.980;7.830;2022-10-31T13:29:50;8.53;;;5.37;;
1685;SDS011;840;47.980;7.830;2022-10-31T13:32:24;5.67;;;4.83;;
1685;SDS011;840;47.980;7.830;2022-10-31T13:34:55;8.63;;;5.10;;
1685;SDS011;840;47.980;7.830;2022-10-31T13:37:26;5.80;;;4.73;;
1685;SDS011;840;47.980;7.830;2022-10-31T13:40:06;5.00;;;4.40;;
1685;SDS011;840;47.980;7.830;2022-10-31T13:42:45;7.80;;;4.63;;
1685;SDS011;840;47.980;7.830;2022-10-31T13:45:19;6.60;;;5.17;;
1685;SDS011;840;47.980;7.830;2022-10-31T13:47:58;6.37;;;4.33;;
1685;SDS011;840;47.980;7.830;2022-10-31T13:50:26;9.23;;;4.80;;
1685;SDS011;840;47.980;7.830;2022-10-31T13:53:09;8.10;;;5.50;;
1685;SDS011;840;47.980;7.830;2022-10-31T13:55:39;5.87;;;4.70;;
1685;SDS011;840;47.980;7.830;2022-10-31T13:58:22;6.37;;;4.17;;
1685;SDS011;840;47.980;7.830;2022-10-31T14:00:58;5.63;;;4.90;;
1685;SDS011;840;47.980;7.830;2022-10-31T14:03:39;7.17;;;3.80;;
1685;SDS011;840;47.980;7.830;2022-10-31T14:06:07;5.50;;;4.50;;
1685;SDS011;840;47.980;7.830;2022-10-31T14:08:36;9.17;;;4.40;;
1685;SDS011;840;47.980;7.830;2022-10-31T14:11:07;8.90;;;5.07;;
1685;SDS011;840;47.980;7.830;2022-10-31T14:13:37;6.30;;;4.43;;
1685;SDS011;840;47.980;7.830;2022-10-31T14:16:16;9.00;;;4.67;;
1685;SDS011;840;47.980;7.830;2022-10-31T14:18:48;8.43;;;5.37;;
1685;SDS011;840;47.980;7.830;2022-10-31T14:21:26;7.57;;;4.90;;
1685;SDS011;840;47.980;7.830;2022-10-31T14:23:55;7.97;;;4.57;;
1685;SDS011;840;47.980;7.830;2022-10-31T14:26:33;6.70;;;5.00;;
1685;SDS011;840;47.980;7.830;2022-10-31T14:29:19;13.67;;;5.20;;
1685;SDS011;840;47.980;7.830;2022-10-31T14:31:53;9.30;;;4.87;;
1685;SDS011;840;47.980;7.830;2022-10-31T14:34:23;7.30;;;5.10;;
1685;SDS011;840;47.980;7.830;2022-10-31T14:36:59;6.73;;;5.80;;
1685;SDS011;840;47.980;7.830;2022-10-31T14:39:39;11.90;;;5.40;;
1685;SDS011;840;47.980;7.830;2022-10-31T14:42:19;8.13;;;5.50;;
1685;SDS011;840;47.980;7.830;2022-10-31T14:48:01;8.00;;;5.33;;
1685;SDS011;840;47.980;7.830;2022-10-31T14:50:41;10.30;;;5.80;;
1685;SDS011;840;47.980;7.830;2022-10-31T14:53:14;10.93;;;6.27;;
1685;SDS011;840;47.980;7.830;2022-10-31T14:55:47;12.47;;;6.43;;
1685;SDS011;840;47.980;7.830;2022-10-31T14:58:17;6.27;;;5.67;;
1685;SDS011;840;47.980;7.830;2022-10-31T15:00:50;14.90;;;5.93;;
1685;SDS011;840;47.980;7.830;2022-10-31T15:03:22;6.93;;;5.00;;
1685;SDS011;840;47.980;7.830;2022-10-31T15:05:54;7.10;;;5.27;;
1685;SDS011;840;47.980;7.830;2022-10-31T15:08:32;7.47;;;5.47;;
1685;SDS011;840;47.980;7.830;2022-10-31T15:11:09;7.77;;;6.83;;
1685;SDS011;840;47.980;7.830;2022-10-31T15:13:41;8.90;;;5.80;;
1685;SDS011;840;47.980;7.830;2022-10-31T15:16:14;12.03;;;5.83;;
1685;SDS011;840;47.980;7.830;2022-10-31T15:18:47;7.07;;;6.37;;
1685;SDS011;840;47.980;7.830;2022-10-31T15:21:17;9.30;;;6.30;;
1685;SDS011;840;47.980;7.830;2022-10-31T15:23:47;12.40;;;6.90;;
1685;SDS011;840;47.980;7.830;2022-10-31T15:26:17;11.13;;;6.97;;
1685;SDS011;840;47.980;7.830;2022-10-31T15:28:56;7.00;;;6.30;;
1685;SDS011;840;47.980;7.830;2022-10-31T15:31:26;7.77;;;5.40;;
1685;SDS011;840;47.980;7.830;2022-10-31T15:33:53;8.43;;;7.37;;
1685;SDS011;840;47.980;7.830;2022-10-31T15:36:24;11.93;;;7.40;;
1685;SDS011;840;47.980;7.830;2022-10-31T15:38:52;7.13;;;6.43;;
1685;SDS011;840;47.980;7.830;2022-10-31T15:41:24;10.10;;;6.43;;
1685;SDS011;840;47.980;7.830;2022-10-31T15:43:59;10.83;;;7.30;;
1685;SDS011;840;47.980;7.830;2022-10-31T15:46:32;10.17;;;5.80;;
1685;SDS011;840;47.980;7.830;2022-10-31T15:48:59;11.03;;;6.70;;
1685;SDS011;840;47.980;7.830;2022-10-31T15:51:27;7.60;;;6.90;;
1685;SDS011;840;47.980;7.830;2022-10-31T15:53:58;11.30;;;6.27;;
1685;SDS011;840;47.980;7.830;2022-10-31T15:56:26;14.73;;;6.90;;
1685;SDS011;840;47.980;7.830;2022-10-31T15:58:56;6.87;;;5.97;;
1685;SDS011;840;47.980;7.830;2022-10-31T16:01:25;7.10;;;5.60;;
1685;SDS011;840;47.980;7.830;2022-10-31T16:04:01;9.33;;;7.20;;